Time;durP1;ratioP1;P1;durP2;ratioP2;P2;SDS_P1;SDS_P2;PMS_P1;PMS_P2;Temp;Humidity;BMP_temperature;BMP_pressure;BME280_temperature;BME280_humidity;BME280_pressure;Samples;Min_cycle;Max_cycle;Signal;HPM_P1;HPM_P2
2022/12/30 00:01:16;;;;;;;12.98;11.43;;;10.80;99.90;;;;;;5053821;28;20078;-83
2022/12/30 00:03:42;;;;;;;16.55;11.98;;;10.70;99.90;;;;;;5053652;28;20086;-83
2022/12/30 00:06:14;;;;;;;21.52;13.40;;;10.70;99.90;;;;;;5053317;28;20497;-83
2022/12/30 00:08:47;;;;;;;15.60;11.80;;;10.70;99.90;;;;;;5053574;28;20032;-84
2022/12/30 00:11:31;;;;;;;15.73;12.40;;;10.70;99.90;;;;;;5053878;28;20029;-83
2022/12/30 00:33:58;;;;;;;20.42;13.05;;;10.30;99.90;;;;;;5053646;28;20102;-84
2022/12/30 00:36:25;;;;;;;13.30;11.45;;;10.50;99.90;;;;;;5052823;28;20095;-84
2022/12/30 00:38:52;;;;;;;14.23;12.50;;;10.40;99.90;;;;;;5053065;28;20412;-84
2022/12/30 00:44:01;;;;;;;14.70;12.30;;;10.40;99.90;;;;;;5053466;28;20043;-84
2022/12/30 00:46:27;;;;;;;17.17;12.60;;;10.40;99.90;;;;;;5052715;28;20123;-84
2022/12/30 00:57:06;;;;;;;14.73;12.13;;;10.40;99.90;;;;;;5052617;28;20500;-84
2022/12/30 00:59:31;;;;;;;14.68;12.23;;;10.40;99.90;;;;;;5052733;28;20025;-84
2022/12/30 01:01:57;;;;;;;16.83;14.25;;;10.30;99.90;;;;;;5052617;28;20386;-83
2022/12/30 01:04:23;;;;;;;19.08;14.95;;;10.20;99.90;;;;;;5051755;28;20502;-83
2022/12/30 01:06:48;;;;;;;20.80;15.05;;;9.90;99.90;;;;;;5052276;28;20095;-83
2022/12/30 01:09:14;;;;;;;16.77;13.85;;;9.80;99.90;;;;;;5052725;28;20036;-84
2022/12/30 01:11:39;;;;;;;17.60;14.55;;;9.90;99.90;;;;;;5052468;28;20028;-84
2022/12/30 01:14:05;;;;;;;18.17;14.77;;;10.00;99.90;;;;;;5052428;28;20086;-84
2022/12/30 01:16:31;;;;;;;19.52;14.98;;;10.20;99.90;;;;;;5052427;28;20033;-84
2022/12/30 01:18:56;;;;;;;19.27;14.35;;;10.20;99.90;;;;;;5052169;28;20021;-84
2022/12/30 01:21:22;;;;;;;17.70;15.02;;;10.20;99.90;;;;;;5051392;28;20383;-84
2022/12/30 01:23:48;;;;;;;20.15;16.05;;;10.30;99.90;;;;;;5052133;28;20037;-84
2022/12/30 01:26:13;;;;;;;22.15;16.70;;;10.30;99.90;;;;;;5052222;28;20036;-83
2022/12/30 01:28:39;;;;;;;21.77;16.52;;;10.30;99.90;;;;;;5052351;28;20420;-83
2022/12/30 01:31:10;;;;;;;26.27;17.40;;;10.10;99.90;;;;;;5052231;28;20036;-83
2022/12/30 01:33:37;;;;;;;19.42;15.82;;;10.30;99.90;;;;;;5051830;28;20025;-83
2022/12/30 01:36:04;;;;;;;23.42;17.63;;;10.10;99.90;;;;;;5051577;28;20112;-84
2022/12/30 01:38:33;;;;;;;21.83;16.38;;;10.20;99.90;;;;;;5052360;28;20515;-84
2022/12/30 01:40:59;;;;;;;18.70;16.15;;;10.20;99.90;;;;;;5052087;28;20020;-84
2022/12/30 01:43:57;;;;;;;20.98;17.48;;;10.10;99.90;;;;;;5052169;28;20035;-84
2022/12/30 01:46:30;;;;;;;22.13;17.98;;;10.10;99.90;;;;;;5051591;28;20040;-84
2022/12/30 01:48:57;;;;;;;24.10;18.65;;;10.00;99.90;;;;;;5052077;28;20083;-84
2022/12/30 01:51:28;;;;;;;25.05;19.85;;;9.80;99.90;;;;;;5052084;28;20067;-84
2022/12/30 01:53:56;;;;;;;23.58;19.48;;;9.70;99.90;;;;;;5051885;28;20485;-84
2022/12/30 01:56:37;;;;;;;24.17;19.35;;;9.60;99.90;;;;;;5052331;28;20044;-84
2022/12/30 01:59:05;;;;;;;29.02;21.17;;;9.60;99.90;;;;;;5051975;28;20017;-84
2022/12/30 02:01:33;;;;;;;27.23;20.30;;;9.50;99.90;;;;;;5051646;28;20018;-83
2022/12/30 02:04:02;;;;;;;28.50;18.60;;;9.40;99.90;;;;;;5051861;28;20025;-84
2022/12/30 02:06:55;;;;;;;25.75;20.25;;;9.30;99.90;;;;;;5051981;28;20044;-83
2022/12/30 02:09:22;;;;;;;30.80;19.05;;;9.30;99.90;;;;;;5052001;28;20032;-84
2022/12/30 02:11:48;;;;;;;24.02;18.38;;;9.30;99.90;;;;;;5051843;28;20512;-84
2022/12/30 02:14:15;;;;;;;25.65;19.10;;;9.20;99.90;;;;;;5051846;28;20021;-83
2022/12/30 02:16:51;;;;;;;28.63;19.65;;;9.20;99.90;;;;;;5052084;28;20429;-83
2022/12/30 02:19:37;;;;;;;43.70;18.88;;;9.30;99.90;;;;;;5055686;28;20393;-84
2022/12/30 02:22:02;;;;;;;395.17;28.73;;;9.30;99.90;;;;;;5055703;28;20091;-84
2022/12/30 02:24:54;;;;;;;117.78;22.23;;;9.20;99.90;;;;;;5055282;28;20049;-83
2022/12/30 02:27:51;;;;;;;100.32;22.10;;;9.30;99.90;;;;;;5055555;28;20025;-84
2022/12/30 02:30:47;;;;;;;386.00;27.92;;;9.60;99.90;;;;;;5054777;28;20083;-84
2022/12/30 02:33:39;;;;;;;164.90;24.70;;;9.60;99.90;;;;;;5055306;28;20104;-84
2022/12/30 02:36:26;;;;;;;176.70;24.77;;;9.60;99.90;;;;;;5055494;28;20455;-84
2022/12/30 02:39:14;;;;;;;253.15;23.63;;;9.60;99.90;;;;;;5055402;28;20112;-84
2022/12/30 02:44:50;;;;;;;128.38;23.05;;;9.70;99.90;;;;;;5055057;28;20520;-84
2022/12/30 02:47:31;;;;;;;150.65;23.42;;;9.80;99.90;;;;;;5055087;28;20405;-84
2022/12/30 02:52:53;;;;;;;172.95;22.70;;;9.90;99.90;;;;;;5055283;28;20032;-84
2022/12/30 02:55:19;;;;;;;276.45;22.60;;;9.80;99.90;;;;;;5055081;28;20040;-84
2022/12/30 02:57:45;;;;;;;290.90;22.58;;;9.70;99.90;;;;;;5053917;28;20037;-84
2022/12/30 03:06:25;;;;;;;130.75;17.70;;;9.60;99.90;;;;;;5055077;28;20044;-84
2022/12/30 03:09:00;;;;;;;175.43;18.95;;;9.50;99.90;;;;;;5054844;28;20027;-84
2022/12/30 03:11:30;;;;;;;180.73;19.40;;;9.10;99.90;;;;;;5054720;28;20033;-84
2022/12/30 03:14:10;;;;;;;146.02;19.75;;;9.00;99.90;;;;;;5054470;28;20029;-84
2022/12/30 03:16:44;;;;;;;139.00;18.65;;;9.10;99.90;;;;;;5054652;28;20039;-84
2022/12/30 03:19:17;;;;;;;166.40;20.80;;;9.20;99.90;;;;;;5054590;28;20039;-83
2022/12/30 03:21:45;;;;;;;133.52;19.40;;;9.10;99.90;;;;;;5054629;28;20484;-85
2022/12/30 03:27:04;;;;;;;58.10;15.77;;;8.90;99.90;;;;;;5054609;28;20464;-83
2022/12/30 03:29:36;;;;;;;67.15;16.27;;;8.80;99.90;;;;;;5053613;28;20028;-83
2022/12/30 03:32:05;;;;;;;72.88;16.05;;;8.80;99.90;;;;;;5054379;28;20484;-84
2022/12/30 03:34:31;;;;;;;68.35;15.85;;;8.70;99.90;;;;;;5054177;28;20029;-84
2022/12/30 03:37:06;;;;;;;80.38;15.55;;;8.50;99.90;;;;;;5054210;28;20028;-83
2022/12/30 03:39:36;;;;;;;40.45;14.48;;;8.40;99.90;;;;;;5054275;28;20033;-83
2022/12/30 03:42:04;;;;;;;51.80;16.33;;;8.30;99.90;;;;;;5054239;28;20029;-83
2022/12/30 03:44:31;;;;;;;43.63;15.32;;;8.30;99.90;;;;;;5053579;28;20028;-84
2022/12/30 03:46:56;;;;;;;120.57;17.48;;;8.30;99.90;;;;;;5054330;28;20025;-83
2022/12/30 03:49:22;;;;;;;57.20;16.13;;;8.20;99.90;;;;;;5053979;28;20075;-83
2022/12/30 03:51:48;;;;;;;38.15;15.07;;;8.00;99.90;;;;;;5053954;28;20025;-84
2022/12/30 03:54:14;;;;;;;81.47;16.17;;;7.90;99.90;;;;;;5053936;28;20035;-84
2022/12/30 03:56:40;;;;;;;75.88;16.50;;;8.00;99.90;;;;;;5053896;28;20551;-84
2022/12/30 03:59:06;;;;;;;96.05;16.85;;;8.00;99.90;;;;;;5053724;28;20120;-84
2022/12/30 04:01:31;;;;;;;40.40;14.80;;;8.00;99.90;;;;;;5053866;28;20032;-84
2022/12/30 04:03:57;;;;;;;45.38;16.42;;;8.00;99.90;;;;;;5053702;28;20032;-83
2022/12/30 04:06:23;;;;;;;42.00;15.95;;;8.10;99.90;;;;;;5052355;28;20087;-83
2022/12/30 04:08:49;;;;;;;31.25;15.30;;;8.10;99.90;;;;;;5052357;28;20048;-84
2022/12/30 04:11:14;;;;;;;18.85;15.07;;;8.10;99.90;;;;;;5053421;28;20036;-84
2022/12/30 04:13:40;;;;;;;18.25;14.70;;;8.10;99.90;;;;;;5053553;28;20408;-83
2022/12/30 04:16:06;;;;;;;19.80;14.60;;;8.10;99.90;;;;;;5053271;28;20029;-82
2022/12/30 04:18:33;;;;;;;23.42;15.85;;;8.10;99.90;;;;;;5053425;28;20504;-84
2022/12/30 04:20:58;;;;;;;18.80;15.00;;;8.10;99.90;;;;;;5053689;28;20021;-83
2022/12/30 04:23:24;;;;;;;22.83;16.17;;;8.20;99.90;;;;;;5053175;28;20029;-82
2022/12/30 04:25:49;;;;;;;21.25;16.42;;;8.20;99.90;;;;;;5052847;28;20044;-83
2022/12/30 04:28:15;;;;;;;24.60;16.77;;;8.00;99.90;;;;;;5053249;28;20017;-84
2022/12/30 04:30:41;;;;;;;22.27;16.75;;;8.00;99.90;;;;;;5053229;28;20037;-84
2022/12/30 04:33:06;;;;;;;26.33;17.75;;;8.10;99.90;;;;;;5053181;28;20025;-84
2022/12/30 04:35:32;;;;;;;24.35;17.38;;;8.10;99.90;;;;;;5052993;28;20037;-83
2022/12/30 04:37:58;;;;;;;28.15;19.00;;;8.10;99.90;;;;;;5052990;28;20025;-83
2022/12/30 04:40:23;;;;;;;25.60;18.13;;;8.10;99.90;;;;;;5052974;28;20032;-83
2022/12/30 04:42:49;;;;;;;24.73;18.30;;;8.20;99.90;;;;;;5053021;28;20029;-83
2022/12/30 04:45:15;;;;;;;24.73;18.27;;;8.20;99.90;;;;;;5053038;28;20595;-84
2022/12/30 04:47:40;;;;;;;28.15;19.90;;;8.20;99.90;;;;;;5053062;28;20025;-83
2022/12/30 04:50:10;;;;;;;28.10;19.77;;;8.30;99.90;;;;;;5053233;28;20033;-84
2022/12/30 04:52:36;;;;;;;30.17;20.23;;;8.30;99.90;;;;;;5052767;28;20043;-83
2022/12/30 04:55:02;;;;;;;26.23;19.50;;;8.40;99.90;;;;;;5052410;28;20096;-84
2022/12/30 04:57:28;;;;;;;28.20;19.13;;;8.40;99.90;;;;;;5052866;28;20037;-84
2022/12/30 04:59:53;;;;;;;26.17;19.90;;;8.40;99.90;;;;;;5052864;28;20029;-84
2022/12/30 05:02:19;;;;;;;27.20;19.52;;;8.40;99.90;;;;;;5052519;28;20060;-84
2022/12/30 05:04:45;;;;;;;29.95;19.83;;;8.50;99.90;;;;;;5052641;28;20061;-83
2022/12/30 05:07:10;;;;;;;26.48;19.15;;;8.60;99.90;;;;;;5052510;28;20052;-84
2022/12/30 05:09:36;;;;;;;30.38;19.58;;;8.60;99.90;;;;;;5052278;28;20032;-83
2022/12/30 05:12:02;;;;;;;25.85;18.85;;;8.60;99.90;;;;;;5052826;28;20036;-83
2022/12/30 05:14:27;;;;;;;28.75;18.98;;;8.60;99.90;;;;;;5052244;28;20477;-84
2022/12/30 05:16:53;;;;;;;25.92;19.13;;;8.70;99.90;;;;;;5052548;28;20040;-84
2022/12/30 05:19:19;;;;;;;25.77;18.85;;;8.80;99.90;;;;;;5052688;28;20792;-84
2022/12/30 05:21:45;;;;;;;25.67;18.25;;;8.80;99.90;;;;;;5052431;28;20670;-83
2022/12/30 05:26:55;;;;;;;26.58;18.17;;;8.70;99.90;;;;;;5052623;28;20036;-84
2022/12/30 05:29:21;;;;;;;24.38;18.13;;;8.80;99.90;;;;;;5052097;28;20033;-83
2022/12/30 05:31:47;;;;;;;22.35;18.27;;;8.90;99.90;;;;;;5052103;28;20020;-84
2022/12/30 05:34:13;;;;;;;28.17;18.92;;;9.00;99.90;;;;;;5052008;28;20053;-84
2022/12/30 05:36:38;;;;;;;24.60;18.30;;;9.00;99.90;;;;;;5052228;28;20118;-83
2022/12/30 05:39:05;;;;;;;26.17;18.45;;;9.10;99.90;;;;;;5051757;28;20075;-83
2022/12/30 05:41:31;;;;;;;26.20;19.42;;;9.10;99.90;;;;;;5052229;28;20029;-83
2022/12/30 05:43:57;;;;;;;26.88;18.70;;;9.10;99.90;;;;;;5050183;28;20071;-83
2022/12/30 05:46:23;;;;;;;27.33;19.60;;;9.10;99.90;;;;;;5031951;28;20041;-84
2022/12/30 05:48:48;;;;;;;22.58;17.70;;;9.20;99.90;;;;;;5032489;28;20025;-84
2022/12/30 05:51:14;;;;;;;23.60;17.65;;;9.10;99.90;;;;;;5034838;28;20568;-84
2022/12/30 05:53:40;;;;;;;25.65;18.45;;;9.10;99.90;;;;;;5038309;28;20025;-83
2022/12/30 05:56:06;;;;;;;23.73;17.60;;;9.20;99.90;;;;;;5038966;28;20037;-83
2022/12/30 05:58:31;;;;;;;20.88;16.83;;;9.20;99.90;;;;;;5038280;28;20083;-84
2022/12/30 06:00:58;;;;;;;24.27;16.65;;;9.20;99.90;;;;;;5038926;28;20056;-83
2022/12/30 06:03:24;;;;;;;23.10;16.85;;;9.20;99.90;;;;;;5038560;28;20104;-83
2022/12/30 06:06:00;;;;;;;22.90;16.83;;;9.20;99.90;;;;;;5038772;28;20185;-84
2022/12/30 06:08:27;;;;;;;21.50;15.98;;;9.30;99.90;;;;;;5038198;28;20025;-83
2022/12/30 06:10:52;;;;;;;20.73;16.00;;;9.40;99.90;;;;;;5039620;28;20034;-84
2022/12/30 06:13:18;;;;;;;23.35;16.95;;;9.40;99.90;;;;;;5038627;28;20083;-84
2022/12/30 06:15:44;;;;;;;25.58;16.75;;;9.40;99.90;;;;;;5038468;28;20029;-83
2022/12/30 06:18:10;;;;;;;19.92;15.65;;;9.40;99.90;;;;;;5038438;28;20100;-84
2022/12/30 06:20:36;;;;;;;21.90;17.42;;;9.50;99.90;;;;;;5038361;28;20037;-84
2022/12/30 06:23:03;;;;;;;23.25;16.75;;;9.50;99.90;;;;;;5038249;28;20082;-84
2022/12/30 06:25:29;;;;;;;25.45;17.23;;;9.50;99.90;;;;;;5038036;28;20123;-83
2022/12/30 06:27:56;;;;;;;22.42;16.33;;;9.40;99.90;;;;;;5038278;28;20057;-83
2022/12/30 06:30:21;;;;;;;23.58;17.17;;;9.40;99.90;;;;;;5038192;28;20083;-83
2022/12/30 06:32:47;;;;;;;21.73;17.52;;;9.30;99.90;;;;;;5038263;28;20493;-84
2022/12/30 06:35:12;;;;;;;25.25;17.05;;;9.20;99.90;;;;;;5054853;28;20108;-83
2022/12/30 06:37:38;;;;;;;22.63;17.52;;;9.20;99.90;;;;;;5057796;28;20036;-84
2022/12/30 06:40:06;;;;;;;25.30;17.38;;;9.10;99.90;;;;;;5058179;28;20109;-84
2022/12/30 06:42:31;;;;;;;30.20;18.02;;;9.10;99.90;;;;;;5058413;28;20029;-83
2022/12/30 06:44:57;;;;;;;24.90;17.92;;;9.10;99.90;;;;;;5056839;28;20036;-84
2022/12/30 06:47:23;;;;;;;25.80;18.30;;;9.10;99.90;;;;;;5058152;28;20052;-84
2022/12/30 06:49:49;;;;;;;25.42;17.13;;;9.20;99.90;;;;;;5058072;28;20038;-84
2022/12/30 06:52:14;;;;;;;25.98;17.52;;;9.10;99.90;;;;;;5056776;28;20501;-85
2022/12/30 06:54:40;;;;;;;28.38;19.50;;;9.10;99.90;;;;;;5058198;28;20576;-84
2022/12/30 06:57:06;;;;;;;29.15;19.27;;;9.00;99.90;;;;;;5057925;28;20063;-84
2022/12/30 06:59:31;;;;;;;26.67;18.65;;;9.00;99.90;;;;;;5058160;28;20033;-83
2022/12/30 07:01:58;;;;;;;26.92;17.70;;;9.00;99.90;;;;;;5057034;28;20043;-84
2022/12/30 07:04:23;;;;;;;27.27;18.58;;;8.90;99.90;;;;;;5054114;28;20127;-84
2022/12/30 07:06:49;;;;;;;24.27;18.92;;;9.00;99.90;;;;;;5053900;28;20116;-84
2022/12/30 07:09:15;;;;;;;25.65;17.85;;;8.80;99.90;;;;;;5054566;28;20025;-84
2022/12/30 07:11:40;;;;;;;27.30;16.80;;;8.80;99.90;;;;;;5054224;28;20035;-84
2022/12/30 07:14:06;;;;;;;24.17;18.17;;;9.00;99.90;;;;;;5054943;28;20029;-84
2022/12/30 07:16:31;;;;;;;30.17;19.40;;;9.10;99.90;;;;;;5054653;28;20024;-84
2022/12/30 07:18:57;;;;;;;29.95;19.33;;;9.20;99.90;;;;;;5054633;28;20052;-84
2022/12/30 07:21:23;;;;;;;26.60;18.77;;;9.20;99.90;;;;;;5054313;28;20118;-84
2022/12/30 07:23:48;;;;;;;24.40;18.25;;;9.30;99.90;;;;;;5053909;28;20059;-84
2022/12/30 07:26:14;;;;;;;29.55;19.42;;;9.40;99.90;;;;;;5054145;28;20041;-84
2022/12/30 07:28:39;;;;;;;26.65;19.20;;;9.50;99.90;;;;;;5054302;28;20098;-84
2022/12/30 07:31:05;;;;;;;32.53;19.73;;;9.60;99.90;;;;;;5054631;28;20509;-84
2022/12/30 07:33:31;;;;;;;26.35;18.35;;;9.70;99.90;;;;;;5054027;28;20048;-84
2022/12/30 07:35:56;;;;;;;30.00;19.02;;;9.80;99.90;;;;;;5053446;28;20029;-84
2022/12/30 07:38:22;;;;;;;27.92;17.52;;;9.90;99.90;;;;;;5054713;28;20541;-84
2022/12/30 07:40:48;;;;;;;25.92;17.65;;;10.00;99.90;;;;;;5053044;28;20520;-84
2022/12/30 07:43:13;;;;;;;28.60;16.80;;;10.10;99.90;;;;;;5054135;28;20386;-84
2022/12/30 07:45:39;;;;;;;24.98;16.35;;;10.10;99.90;;;;;;5054020;28;20033;-84
2022/12/30 07:48:04;;;;;;;21.70;16.60;;;10.10;99.90;;;;;;5054062;28;20025;-84
2022/12/30 07:50:30;;;;;;;18.33;14.52;;;10.20;99.90;;;;;;5053535;28;20485;-84
2022/12/30 07:52:56;;;;;;;20.98;14.75;;;10.30;99.90;;;;;;5053747;28;20397;-84
2022/12/30 07:55:21;;;;;;;26.10;15.25;;;10.30;99.90;;;;;;5054267;28;20385;-84
2022/12/30 07:57:47;;;;;;;23.20;15.70;;;10.40;99.90;;;;;;5053728;28;20477;-83
2022/12/30 08:00:13;;;;;;;24.27;14.10;;;10.60;99.90;;;;;;5053811;28;20025;-84
2022/12/30 08:02:39;;;;;;;23.55;15.65;;;10.60;99.90;;;;;;5053672;28;20040;-84
2022/12/30 08:05:08;;;;;;;24.20;16.13;;;10.60;99.90;;;;;;5053565;28;20060;-84
2022/12/30 08:07:35;;;;;;;19.67;15.00;;;10.80;99.90;;;;;;5053624;28;20024;-84
2022/12/30 08:10:01;;;;;;;21.52;14.25;;;10.80;99.90;;;;;;5052987;28;20151;-82
2022/12/30 08:12:26;;;;;;;33.10;15.77;;;10.80;99.90;;;;;;5053390;28;20481;-86
2022/12/30 08:14:52;;;;;;;20.95;14.60;;;10.80;99.90;;;;;;5054178;28;20523;-86
2022/12/30 08:17:18;;;;;;;22.52;13.70;;;11.00;99.90;;;;;;5053494;28;20401;-87
2022/12/30 08:19:43;;;;;;;23.80;14.80;;;11.10;99.90;;;;;;5053002;28;20021;-87
2022/12/30 08:22:09;;;;;;;20.02;14.65;;;11.20;99.90;;;;;;5054210;28;20057;-86
2022/12/30 08:24:35;;;;;;;21.02;14.02;;;11.10;99.90;;;;;;5053838;28;20051;-86
2022/12/30 08:27:00;;;;;;;19.20;12.77;;;11.10;99.90;;;;;;5052638;28;20428;-82
2022/12/30 08:29:26;;;;;;;15.27;12.93;;;11.10;99.90;;;;;;5053308;28;20047;-84
2022/12/30 08:31:52;;;;;;;18.73;11.40;;;11.20;99.90;;;;;;5053248;28;20366;-82
2022/12/30 08:34:19;;;;;;;18.20;12.35;;;11.20;99.90;;;;;;5052577;28;20029;-83
2022/12/30 08:36:45;;;;;;;16.00;12.15;;;11.30;99.90;;;;;;5053181;28;20036;-84
2022/12/30 08:39:11;;;;;;;17.52;11.93;;;11.40;99.90;;;;;;5053002;28;20385;-83
2022/12/30 08:41:41;;;;;;;23.02;11.23;;;11.50;99.90;;;;;;5053445;28;20090;-86
2022/12/30 08:44:08;;;;;;;17.70;10.52;;;11.60;99.90;;;;;;5053102;28;20355;-86
2022/12/30 08:46:35;;;;;;;17.95;11.75;;;11.60;99.90;;;;;;5052624;28;20045;-84
2022/12/30 08:49:01;;;;;;;16.90;12.00;;;11.90;99.90;;;;;;5052433;28;20076;-84
2022/12/30 08:51:28;;;;;;;15.95;11.27;;;11.90;99.90;;;;;;5052808;28;20056;-84
2022/12/30 08:53:53;;;;;;;17.08;10.98;;;12.00;99.90;;;;;;5053234;28;20022;-84
2022/12/30 08:56:23;;;;;;;14.85;10.48;;;12.00;99.90;;;;;;5052755;28;20048;-81
2022/12/30 08:58:49;;;;;;;19.70;12.00;;;12.60;99.90;;;;;;5052639;28;20025;-81
2022/12/30 09:01:21;;;;;;;17.38;11.85;;;13.80;99.90;;;;;;5052154;28;20032;-81
2022/12/30 09:03:47;;;;;;;19.00;12.20;;;13.70;99.90;;;;;;5052380;28;20163;-81
2022/12/30 09:06:15;;;;;;;16.23;9.02;;;13.70;99.90;;;;;;5051970;28;20121;-81
2022/12/30 09:08:41;;;;;;;9.63;6.50;;;13.00;99.90;;;;;;5041468;28;20501;-82
2022/12/30 09:11:12;;;;;;;15.57;10.07;;;12.90;99.90;;;;;;5052372;28;20508;-83
2022/12/30 09:13:41;;;;;;;18.23;10.30;;;12.60;99.90;;;;;;5040910;28;20021;-82
2022/12/30 09:16:10;;;;;;;17.27;10.02;;;12.40;99.90;;;;;;5032295;28;20038;-82
2022/12/30 09:18:36;;;;;;;12.63;7.30;;;12.20;99.90;;;;;;5032365;28;20498;-82
2022/12/30 09:21:02;;;;;;;17.25;8.95;;;12.00;99.90;;;;;;5032481;28;20117;-82
2022/12/30 09:23:28;;;;;;;14.73;8.98;;;11.90;99.90;;;;;;5032232;28;20472;-82
2022/12/30 09:25:54;;;;;;;14.20;10.10;;;11.90;99.90;;;;;;5043835;28;20037;-81
2022/12/30 09:28:20;;;;;;;15.48;9.70;;;11.90;99.90;;;;;;5051861;28;20389;-82
2022/12/30 09:30:46;;;;;;;15.45;9.07;;;12.20;99.90;;;;;;5051817;28;20551;-83
2022/12/30 09:33:12;;;;;;;12.95;8.75;;;12.30;99.90;;;;;;5051815;28;20025;-82
2022/12/30 09:35:38;;;;;;;13.57;7.95;;;12.30;99.90;;;;;;5052011;28;20025;-82
2022/12/30 09:38:03;;;;;;;14.27;8.73;;;12.40;99.90;;;;;;5052389;28;20074;-82
2022/12/30 09:40:44;;;;;;;11.80;7.97;;;12.40;99.90;;;;;;5052093;28;20393;-86
2022/12/30 09:43:27;;;;;;;12.98;7.90;;;12.30;99.90;;;;;;5049898;28;20524;-86
2022/12/30 09:45:56;;;;;;;11.60;6.20;;;12.20;99.90;;;;;;5047759;28;20036;-86
2022/12/30 09:48:26;;;;;;;13.38;8.27;;;12.10;99.90;;;;;;5047905;28;20033;-85
2022/12/30 09:50:58;;;;;;;11.85;7.85;;;12.00;99.90;;;;;;5052410;28;20039;-85
2022/12/30 09:53:55;;;;;;;12.25;7.68;;;11.80;99.90;;;;;;5052083;28;20032;-85
2022/12/30 09:56:30;;;;;;;12.20;6.32;;;11.70;99.90;;;;;;5048007;28;20040;-85
2022/12/30 09:59:00;;;;;;;7.70;4.85;;;11.80;99.90;;;;;;5051688;28;20021;-85
2022/12/30 10:01:39;;;;;;;13.73;8.60;;;11.90;99.90;;;;;;5051778;28;20033;-84
2022/12/30 10:04:16;;;;;;;10.95;5.93;;;11.90;99.90;;;;;;5050952;28;20039;-85
2022/12/30 10:07:17;;;;;;;10.70;7.28;;;11.90;99.90;;;;;;5041615;28;20031;-86
2022/12/30 10:09:58;;;;;;;6.35;5.28;;;12.00;99.90;;;;;;5033154;28;20036;-85
2022/12/30 10:12:44;;;;;;;8.80;5.57;;;12.00;99.90;;;;;;5052270;28;20388;-86
2022/12/30 10:15:28;;;;;;;10.05;6.72;;;12.10;99.90;;;;;;5051335;28;20029;-84
2022/12/30 10:17:57;;;;;;;12.35;7.72;;;12.10;99.90;;;;;;5052144;28;20110;-85
2022/12/30 10:20:48;;;;;;;12.80;6.32;;;12.30;99.90;;;;;;5052065;28;20025;-85
2022/12/30 10:23:52;;;;;;;9.85;6.20;;;12.20;99.90;;;;;;5051670;28;20052;-87
2022/12/30 10:26:24;;;;;;;9.65;6.25;;;12.40;99.90;;;;;;5051952;28;20048;-85
2022/12/30 10:28:51;;;;;;;10.25;5.85;;;12.30;99.90;;;;;;5052252;28;20028;-85
2022/12/30 10:31:23;;;;;;;10.77;5.45;;;12.30;99.90;;;;;;5052531;28;20028;-86
2022/12/30 10:33:52;;;;;;;8.75;6.50;;;12.30;99.90;;;;;;5050460;28;20120;-86
2022/12/30 10:36:32;;;;;;;8.55;6.45;;;12.30;99.90;;;;;;5052048;28;20032;-86
2022/12/30 10:39:19;;;;;;;10.45;6.13;;;12.30;99.90;;;;;;5056274;28;20048;-85
2022/12/30 10:42:06;;;;;;;14.88;5.53;;;12.30;99.90;;;;;;5055390;28;20083;-85
2022/12/30 10:44:44;;;;;;;8.60;5.88;;;12.30;99.90;;;;;;5055167;28;20025;-83
2022/12/30 10:47:18;;;;;;;16.00;5.93;;;12.30;99.90;;;;;;5044832;28;20068;-83
2022/12/30 10:49:53;;;;;;;14.20;7.05;;;12.30;99.90;;;;;;5053842;28;20090;-85
2022/12/30 10:52:19;;;;;;;11.82;6.22;;;12.30;99.90;;;;;;5049904;28;20025;-81
2022/12/30 10:54:47;;;;;;;8.55;4.80;;;12.40;99.90;;;;;;5055140;28;20033;-83
2022/12/30 10:57:21;;;;;;;8.70;6.22;;;12.30;99.90;;;;;;5046191;28;20481;-85
2022/12/30 10:59:48;;;;;;;9.38;5.68;;;12.30;99.90;;;;;;5051417;28;20026;-82
2022/12/30 11:02:28;;;;;;;11.25;6.25;;;12.30;99.90;;;;;;5053646;28;20079;-87
2022/12/30 11:04:54;;;;;;;11.23;6.20;;;12.30;99.90;;;;;;5055376;28;20051;-87
2022/12/30 11:07:20;;;;;;;13.80;5.97;;;12.30;99.90;;;;;;5054995;28;20108;-85
2022/12/30 11:09:47;;;;;;;9.98;7.10;;;12.30;99.90;;;;;;5053784;28;20025;-88
2022/12/30 11:15:14;;;;;;;10.38;5.50;;;12.30;99.90;;;;;;5054979;28;20074;-88
2022/12/30 11:17:53;;;;;;;10.95;5.00;;;12.00;99.90;;;;;;5054653;28;20033;-88
2022/12/30 11:20:24;;;;;;;12.50;5.97;;;11.90;99.90;;;;;;5055613;28;20025;-88
2022/12/30 11:22:52;;;;;;;12.50;7.25;;;11.90;99.90;;;;;;5055260;28;20035;-91
2022/12/30 11:25:43;;;;;;;12.00;7.60;;;11.90;99.90;;;;;;5055957;28;20061;-87
2022/12/30 11:28:35;;;;;;;14.18;6.85;;;12.00;99.90;;;;;;5054402;28;20082;-89
2022/12/30 11:31:03;;;;;;;10.30;5.97;;;12.00;99.90;;;;;;5047341;28;20047;-87
2022/12/30 11:33:39;;;;;;;12.10;6.97;;;12.00;99.90;;;;;;5054799;28;20028;-87
2022/12/30 11:36:27;;;;;;;11.07;5.88;;;12.00;99.90;;;;;;5046102;28;20029;-87
2022/12/30 11:38:53;;;;;;;15.30;8.02;;;12.10;99.90;;;;;;5054004;28;20064;-84
2022/12/30 11:41:23;;;;;;;7.97;5.05;;;12.30;99.90;;;;;;5052819;28;20452;-85
2022/12/30 11:44:04;;;;;;;12.35;5.57;;;11.80;99.90;;;;;;5053878;28;20033;-84
2022/12/30 11:46:44;;;;;;;13.35;7.30;;;11.90;99.90;;;;;;5053665;28;20037;-84
2022/12/30 11:49:38;;;;;;;10.73;7.03;;;11.90;99.90;;;;;;5053354;28;20041;-83
2022/12/30 11:52:03;;;;;;;14.57;7.00;;;12.00;99.90;;;;;;5054262;28;20017;-83
2022/12/30 11:54:52;;;;;;;10.90;5.13;;;11.70;99.90;;;;;;5053927;28;20051;-83
2022/12/30 11:57:32;;;;;;;9.32;4.55;;;11.60;99.90;;;;;;5053981;28;20094;-82
2022/12/30 11:59:59;;;;;;;10.45;5.25;;;11.40;99.90;;;;;;5054283;28;20104;-83
2022/12/30 12:02:44;;;;;;;11.57;6.53;;;11.50;99.90;;;;;;5052051;28;20032;-87
2022/12/30 12:05:25;;;;;;;11.63;7.20;;;11.60;99.90;;;;;;5052626;28;20029;-87
2022/12/30 12:07:56;;;;;;;9.88;6.25;;;11.60;99.90;;;;;;5069787;28;20033;-81
2022/12/30 12:10:33;;;;;;;15.30;7.10;;;11.60;99.90;;;;;;5052185;28;20278;-84
2022/12/30 12:13:08;;;;;;;11.85;6.30;;;11.70;99.90;;;;;;5050470;28;20075;-81
2022/12/30 12:15:47;;;;;;;9.27;5.70;;;11.50;99.90;;;;;;5052588;28;20044;-81
2022/12/30 12:18:31;;;;;;;9.30;5.50;;;11.50;99.90;;;;;;5052912;28;20025;-85
2022/12/30 12:21:12;;;;;;;12.10;6.18;;;11.50;99.90;;;;;;5054973;28;20090;-88
2022/12/30 12:23:56;;;;;;;13.10;7.70;;;11.50;99.90;;;;;;5053145;28;20033;-83
2022/12/30 12:26:49;;;;;;;12.70;6.20;;;11.50;99.90;;;;;;5052784;28;20387;-85
2022/12/30 12:29:15;;;;;;;10.70;6.68;;;11.70;99.90;;;;;;5053222;28;20025;-83
2022/12/30 12:31:44;;;;;;;11.18;5.80;;;11.80;99.90;;;;;;5052594;28;20033;-83
2022/12/30 12:34:45;;;;;;;12.93;5.35;;;11.80;99.90;;;;;;5053121;28;20052;-83
2022/12/30 12:37:29;;;;;;;10.48;5.75;;;11.90;99.90;;;;;;5053531;28;20579;-83
2022/12/30 12:40:12;;;;;;;12.82;5.63;;;11.90;99.90;;;;;;5052963;28;20111;-83
2022/12/30 12:42:47;;;;;;;10.65;5.35;;;11.90;99.90;;;;;;5053208;28;20043;-84
2022/12/30 12:45:30;;;;;;;11.32;5.07;;;12.00;99.90;;;;;;5053109;28;20036;-83
2022/12/30 12:48:08;;;;;;;10.00;5.40;;;12.00;99.90;;;;;;5053121;28;20058;-84
2022/12/30 12:50:39;;;;;;;10.30;5.93;;;12.00;99.90;;;;;;5053563;28;20402;-83
2022/12/30 12:53:26;;;;;;;10.10;4.53;;;12.00;99.90;;;;;;5052775;28;20021;-84
2022/12/30 12:55:54;;;;;;;10.48;5.45;;;12.10;99.90;;;;;;5052853;28;20056;-83
2022/12/30 12:58:44;;;;;;;12.85;5.15;;;12.00;99.90;;;;;;5052750;28;20422;-83
2022/12/30 13:01:23;;;;;;;11.77;5.57;;;12.10;99.90;;;;;;5051561;28;20025;-83
2022/12/30 13:04:17;;;;;;;7.95;4.75;;;12.10;99.90;;;;;;5052545;28;20032;-83
2022/12/30 13:07:01;;;;;;;10.15;5.45;;;12.00;99.90;;;;;;5052672;28;20044;-83
2022/12/30 13:09:29;;;;;;;8.43;5.50;;;12.10;99.90;;;;;;5052578;28;20035;-83
2022/12/30 13:12:04;;;;;;;9.98;4.97;;;12.00;99.90;;;;;;5052050;28;20083;-84
2022/12/30 13:14:44;;;;;;;10.48;4.53;;;12.00;99.90;;;;;;5052798;28;20108;-83
2022/12/30 13:17:31;;;;;;;8.68;5.05;;;11.80;99.90;;;;;;5052365;28;20033;-83
2022/12/30 13:20:04;;;;;;;8.60;5.55;;;11.80;99.90;;;;;;5052463;28;20087;-83
2022/12/30 13:22:36;;;;;;;13.13;6.10;;;11.70;99.90;;;;;;5050923;28;20075;-83
2022/12/30 13:25:25;;;;;;;5.70;3.72;;;11.70;99.90;;;;;;5052179;28;20048;-83
2022/12/30 13:27:54;;;;;;;9.05;5.70;;;11.50;90.30;;;;;;5052534;28;20036;-83
2022/12/30 13:30:21;;;;;;;10.45;6.50;;;11.20;99.90;;;;;;5052172;28;20096;-83
2022/12/30 13:33:15;;;;;;;12.63;6.75;;;11.20;99.90;;;;;;5052325;28;20116;-83
2022/12/30 13:36:17;;;;;;;11.23;6.25;;;11.20;99.90;;;;;;5036576;28;20555;-83
2022/12/30 13:39:21;;;;;;;12.35;6.80;;;11.20;1.00;;;;;;5050676;28;20040;-83
2022/12/30 13:42:25;;;;;;;10.38;7.03;;;11.20;99.90;;;;;;5051980;28;20036;-83
2022/12/30 13:44:51;;;;;;;12.63;6.30;;;11.30;12.80;;;;;;5049831;28;20055;-84
2022/12/30 13:47:36;;;;;;;10.57;7.18;;;11.30;99.90;;;;;;5052001;28;20021;-83